Time;durP1;ratioP1;P1;durP2;ratioP2;P2;SDS_P1;SDS_P2;PMS_P1;PMS_P2;Temp;Humidity;BMP_temperature;BMP_pressure;BME280_temperature;BME280_humidity;BME280_pressure;Samples;Min_cycle;Max_cycle;Signal;HPM_P1;HPM_P2
2022/06/18 00:01:34;;;;;;;0.85;0.80;;;25.10;37.30;;;;;;4975906;28;20046;-59
2022/06/18 00:04:04;;;;;;;1.90;0.90;;;25.10;37.40;;;;;;4982776;28;20054;-55
2022/06/18 00:06:36;;;;;;;1.67;1.00;;;25.10;37.60;;;;;;4982220;28;20062;-57
2022/06/18 00:09:04;;;;;;;2.45;1.00;;;25.00;37.90;;;;;;4981287;28;20054;-56
2022/06/18 00:14:17;;;;;;;2.30;1.00;;;25.00;38.20;;;;;;4987459;28;20065;-57
2022/06/18 00:16:45;;;;;;;1.70;1.05;;;25.00;38.40;;;;;;4978737;28;20054;-57
2022/06/18 00:19:13;;;;;;;2.08;1.00;;;24.90;38.50;;;;;;4979334;28;20046;-59
2022/06/18 00:21:42;;;;;;;1.58;0.90;;;24.90;38.70;;;;;;4978501;28;20502;-57
2022/06/18 00:24:16;;;;;;;3.72;0.90;;;24.90;38.80;;;;;;4980517;28;20046;-57
2022/06/18 00:26:44;;;;;;;2.92;1.08;;;24.80;38.90;;;;;;4976528;28;20510;-56
2022/06/18 00:29:15;;;;;;;2.65;0.68;;;24.80;38.80;;;;;;4980788;28;20073;-56
2022/06/18 00:31:43;;;;;;;2.30;1.00;;;24.70;38.90;;;;;;4977850;28;20516;-59
2022/06/18 00:34:11;;;;;;;0.80;0.77;;;24.70;39.20;;;;;;4981234;28;20057;-59
2022/06/18 00:36:42;;;;;;;3.33;0.95;;;24.60;39.30;;;;;;4979686;28;20054;-59
2022/06/18 00:39:16;;;;;;;3.72;1.30;;;24.60;39.40;;;;;;4981087;28;20061;-56
2022/06/18 00:41:45;;;;;;;0.80;0.80;;;24.50;39.50;;;;;;4978741;28;20050;-57
2022/06/18 00:44:22;;;;;;;6.05;0.85;;;24.50;39.50;;;;;;4980424;28;20054;-59
2022/06/18 00:46:58;;;;;;;1.42;1.10;;;24.50;39.80;;;;;;4982014;28;20486;-55
2022/06/18 00:49:32;;;;;;;2.08;0.95;;;24.40;39.90;;;;;;4977670;28;20058;-58
2022/06/18 00:52:07;;;;;;;1.67;0.85;;;24.40;39.90;;;;;;4983979;28;20414;-59
2022/06/18 00:54:40;;;;;;;4.72;1.13;;;24.40;40.10;;;;;;4986591;28;20058;-57
2022/06/18 00:57:13;;;;;;;1.63;1.00;;;24.30;40.70;;;;;;4986289;28;20441;-58
2022/06/18 00:59:46;;;;;;;1.77;0.93;;;24.30;40.20;;;;;;4987294;28;20069;-58
2022/06/18 01:02:19;;;;;;;1.70;1.00;;;24.20;40.50;;;;;;4980563;28;20059;-59
2022/06/18 01:04:46;;;;;;;1.88;1.17;;;24.20;40.50;;;;;;4982562;28;20061;-58
2022/06/18 01:07:24;;;;;;;2.08;1.05;;;24.10;40.50;;;;;;4982052;28;20417;-59
2022/06/18 01:09:53;;;;;;;2.33;0.80;;;24.10;40.70;;;;;;4980463;28;20062;-60
2022/06/18 01:12:22;;;;;;;2.85;1.00;;;24.00;40.50;;;;;;4982721;28;20065;-58
2022/06/18 01:14:54;;;;;;;2.15;0.90;;;24.00;40.80;;;;;;4979687;28;20052;-60
2022/06/18 01:17:22;;;;;;;3.63;1.13;;;24.00;40.90;;;;;;4985982;28;20065;-59
2022/06/18 01:19:51;;;;;;;1.52;0.95;;;23.90;40.80;;;;;;4984512;28;20628;-60
2022/06/18 01:22:35;;;;;;;1.52;1.17;;;23.90;40.90;;;;;;4985346;28;20061;-59
2022/06/18 01:25:06;;;;;;;1.08;0.80;;;23.80;40.80;;;;;;4981512;28;20053;-57
2022/06/18 01:27:35;;;;;;;2.13;1.15;;;23.80;41.20;;;;;;4979891;28;20054;-59
2022/06/18 01:30:06;;;;;;;1.85;1.02;;;23.80;41.30;;;;;;4978601;28;20513;-59
2022/06/18 01:32:33;;;;;;;2.03;1.23;;;23.80;41.50;;;;;;4977180;28;20062;-57
2022/06/18 01:35:01;;;;;;;1.30;1.00;;;23.70;41.40;;;;;;4975309;28;20819;-59
2022/06/18 01:37:29;;;;;;;1.60;1.08;;;23.70;41.50;;;;;;4975277;28;20054;-59
2022/06/18 01:39:59;;;;;;;1.75;1.13;;;23.60;41.60;;;;;;4974328;28;20058;-56
2022/06/18 01:42:34;;;;;;;4.22;1.30;;;23.70;42.00;;;;;;4980868;28;20057;-59
2022/06/18 01:45:05;;;;;;;1.30;1.15;;;23.60;42.10;;;;;;4986408;28;20490;-59
2022/06/18 01:47:39;;;;;;;3.53;1.23;;;23.60;42.10;;;;;;4985082;28;20557;-59
2022/06/18 01:50:12;;;;;;;2.33;1.25;;;23.60;42.10;;;;;;4986580;28;20073;-59
2022/06/18 01:52:44;;;;;;;3.40;1.30;;;23.50;42.10;;;;;;4976648;28;20069;-57
2022/06/18 01:55:16;;;;;;;1.80;1.15;;;23.50;42.30;;;;;;4981653;28;20414;-58
2022/06/18 01:57:49;;;;;;;1.67;1.20;;;23.50;42.40;;;;;;4983510;28;20425;-57
2022/06/18 02:00:22;;;;;;;1.45;1.00;;;23.50;42.50;;;;;;4983438;28;20498;-57
2022/06/18 02:02:51;;;;;;;1.98;1.17;;;23.40;42.70;;;;;;4979983;28;20054;-57
2022/06/18 02:05:21;;;;;;;3.25;1.42;;;23.40;42.60;;;;;;4983965;28;20061;-59
2022/06/18 02:07:50;;;;;;;3.63;1.10;;;23.40;42.70;;;;;;4984937;28;20054;-57
2022/06/18 02:10:20;;;;;;;2.28;1.20;;;23.40;42.90;;;;;;4973329;28;20049;-60
2022/06/18 02:12:49;;;;;;;1.40;1.02;;;23.30;43.00;;;;;;4976969;28;20494;-57
2022/06/18 02:15:23;;;;;;;3.78;1.40;;;23.30;43.10;;;;;;4977698;28;20058;-60
2022/06/18 02:17:50;;;;;;;1.53;1.00;;;23.30;43.30;;;;;;4982555;28;20422;-59
2022/06/18 02:20:21;;;;;;;2.13;1.38;;;23.30;43.20;;;;;;4982230;28;20054;-58
2022/06/18 02:22:52;;;;;;;1.52;1.20;;;23.20;43.40;;;;;;4974940;28;20054;-59
2022/06/18 02:25:23;;;;;;;2.58;1.27;;;23.20;43.30;;;;;;4981366;28;20061;-59
2022/06/18 02:27:56;;;;;;;4.30;1.50;;;23.10;43.50;;;;;;4983972;28;20054;-60
2022/06/18 02:30:26;;;;;;;2.58;1.30;;;23.10;43.60;;;;;;4980411;28;20070;-60
2022/06/18 02:32:57;;;;;;;2.08;1.20;;;23.10;43.70;;;;;;4989458;28;20513;-58
2022/06/18 02:35:24;;;;;;;1.92;1.10;;;23.00;43.70;;;;;;4989341;28;20046;-60
2022/06/18 02:37:54;;;;;;;3.05;1.50;;;23.10;43.90;;;;;;4981016;28;20058;-58
2022/06/18 02:40:24;;;;;;;3.53;1.10;;;23.00;44.00;;;;;;4984448;28;20054;-60
2022/06/18 02:42:56;;;;;;;3.28;1.20;;;23.00;44.20;;;;;;4984206;28;20063;-60
2022/06/18 02:45:27;;;;;;;1.63;1.23;;;23.00;44.20;;;;;;4981368;28;20058;-60
2022/06/18 02:47:56;;;;;;;3.15;1.48;;;22.90;44.20;;;;;;4989981;28;20054;-59
2022/06/18 02:50:27;;;;;;;2.15;1.45;;;22.90;44.30;;;;;;4985728;28;20057;-59
2022/06/18 02:53:00;;;;;;;1.65;1.30;;;22.80;44.30;;;;;;4988334;28;20062;-59
2022/06/18 02:55:32;;;;;;;2.33;1.40;;;22.80;44.40;;;;;;4981388;28;20050;-59
2022/06/18 02:58:05;;;;;;;3.70;1.52;;;22.80;44.50;;;;;;4982932;28;20054;-56
2022/06/18 03:00:36;;;;;;;3.13;1.65;;;22.80;44.70;;;;;;4981983;28;20062;-57
2022/06/18 03:03:04;;;;;;;2.38;1.27;;;22.80;44.60;;;;;;4982171;28;20546;-57
2022/06/18 03:05:32;;;;;;;2.50;1.35;;;22.70;44.60;;;;;;4982958;28;20482;-58
2022/06/18 03:07:59;;;;;;;3.53;1.45;;;22.70;44.70;;;;;;4984326;28;20050;-57
2022/06/18 03:13:13;;;;;;;2.38;1.05;;;22.70;45.00;;;;;;4988943;28;20069;-59
2022/06/18 03:15:42;;;;;;;2.88;1.50;;;22.70;45.20;;;;;;4983145;28;20047;-58
2022/06/18 03:18:10;;;;;;;2.60;1.52;;;22.60;45.20;;;;;;4980513;28;20058;-57
2022/06/18 03:20:57;;;;;;;4.82;1.40;;;22.60;45.20;;;;;;4968892;28;20061;-57
2022/06/18 03:23:26;;;;;;;1.73;1.30;;;22.60;45.50;;;;;;4982270;28;20086;-56
2022/06/18 03:25:54;;;;;;;2.33;1.40;;;22.60;45.20;;;;;;4980490;28;20064;-57
2022/06/18 03:28:25;;;;;;;2.35;1.20;;;22.60;45.10;;;;;;4980732;28;20061;-57
2022/06/18 03:30:52;;;;;;;1.88;1.27;;;22.50;45.30;;;;;;4980219;28;20054;-57
2022/06/18 03:33:20;;;;;;;1.48;1.10;;;22.50;45.30;;;;;;4983186;28;20058;-59
2022/06/18 03:35:50;;;;;;;2.10;1.30;;;22.50;45.30;;;;;;4982667;28;20058;-59
2022/06/18 03:38:17;;;;;;;1.75;1.10;;;22.50;45.30;;;;;;4982154;28;20077;-58
2022/06/18 03:40:45;;;;;;;2.70;1.30;;;22.50;45.40;;;;;;4980746;28;20054;-58
2022/06/18 03:43:13;;;;;;;2.60;1.17;;;22.40;45.40;;;;;;4982883;28;20050;-57
2022/06/18 03:45:45;;;;;;;3.42;1.50;;;22.40;45.40;;;;;;4982621;28;20058;-58
2022/06/18 03:48:19;;;;;;;1.67;1.10;;;22.40;45.50;;;;;;4983035;28;20057;-56
2022/06/18 03:50:47;;;;;;;1.60;1.15;;;22.40;45.60;;;;;;4977750;28;20065;-55
2022/06/18 03:53:14;;;;;;;4.28;1.27;;;22.50;45.70;;;;;;4982273;28;20054;-57
2022/06/18 03:55:42;;;;;;;2.55;1.38;;;22.50;45.70;;;;;;4980975;28;20085;-57
2022/06/18 03:58:10;;;;;;;2.30;1.40;;;22.50;45.80;;;;;;4979464;28;20054;-57
2022/06/18 04:00:38;;;;;;;2.78;1.52;;;22.40;45.80;;;;;;4974759;28;20062;-58
2022/06/18 04:03:07;;;;;;;4.50;1.35;;;22.40;45.80;;;;;;4990599;28;20062;-57
2022/06/18 04:05:38;;;;;;;2.05;1.20;;;22.40;45.90;;;;;;4981125;28;20529;-59
2022/06/18 04:08:06;;;;;;;1.88;1.27;;;22.40;46.00;;;;;;4987896;28;20053;-59
2022/06/18 04:10:34;;;;;;;1.33;1.23;;;22.40;46.00;;;;;;4985447;28;20066;-59
2022/06/18 04:13:02;;;;;;;3.35;2.08;;;22.40;46.10;;;;;;4991992;28;20422;-59
2022/06/18 04:15:30;;;;;;;3.88;2.67;;;22.40;46.30;;;;;;4981441;28;20074;-56
2022/06/18 04:17:58;;;;;;;4.40;2.22;;;22.50;46.80;;;;;;4977595;28;20053;-58
2022/06/18 04:20:30;;;;;;;3.47;1.80;;;22.50;46.30;;;;;;4979898;28;20495;-59
2022/06/18 04:22:58;;;;;;;3.00;1.70;;;22.50;46.20;;;;;;4992157;28;20054;-59
2022/06/18 04:25:26;;;;;;;5.50;1.60;;;22.50;46.30;;;;;;4985394;28;20513;-57
2022/06/18 04:27:57;;;;;;;4.45;1.40;;;22.50;46.20;;;;;;4986204;28;20057;-58
2022/06/18 04:30:27;;;;;;;4.18;1.13;;;22.50;46.30;;;;;;4980343;28;20426;-59
2022/06/18 04:32:55;;;;;;;3.05;1.30;;;22.50;46.50;;;;;;4973203;28;20054;-57
2022/06/18 04:35:23;;;;;;;1.95;1.42;;;22.50;46.50;;;;;;4984024;28;20046;-56
2022/06/18 04:37:54;;;;;;;2.60;1.58;;;22.50;46.50;;;;;;4988716;28;20510;-59
2022/06/18 04:40:26;;;;;;;2.33;1.60;;;22.50;46.60;;;;;;4981872;28;20059;-59
2022/06/18 04:42:53;;;;;;;1.90;1.50;;;22.50;46.70;;;;;;4980653;28;20065;-57
2022/06/18 04:45:21;;;;;;;2.22;1.48;;;22.60;46.70;;;;;;4981606;28;20050;-59
2022/06/18 04:47:49;;;;;;;1.45;1.30;;;22.50;46.60;;;;;;4981480;28;20054;-58
2022/06/18 04:50:21;;;;;;;3.03;1.50;;;22.60;46.70;;;;;;4978086;28;20058;-59
2022/06/18 04:52:52;;;;;;;2.88;1.60;;;22.60;46.70;;;;;;4980445;28;20053;-59
2022/06/18 04:55:26;;;;;;;4.90;1.45;;;22.60;46.70;;;;;;4975336;28;20065;-55
2022/06/18 04:57:55;;;;;;;2.83;1.13;;;22.70;47.10;;;;;;4977561;28;20498;-59
2022/06/18 05:00:24;;;;;;;1.85;1.30;;;22.70;47.10;;;;;;4977222;28;20050;-59
2022/06/18 05:02:52;;;;;;;2.45;1.40;;;22.70;47.20;;;;;;4980832;28;20065;-57
2022/06/18 05:05:23;;;;;;;1.60;1.30;;;22.70;47.40;;;;;;4976781;28;20055;-59
2022/06/18 05:07:54;;;;;;;9.27;1.88;;;22.80;47.50;;;;;;4979274;28;20402;-57
2022/06/18 05:10:23;;;;;;;1.70;1.38;;;22.80;47.60;;;;;;4975092;28;20438;-58
2022/06/18 05:12:51;;;;;;;3.92;1.60;;;22.80;47.70;;;;;;4979433;28;20879;-59
2022/06/18 05:15:19;;;;;;;2.72;1.80;;;22.80;47.50;;;;;;4980540;28;20494;-57
2022/06/18 05:17:47;;;;;;;2.05;1.17;;;22.90;47.70;;;;;;4980456;28;20046;-56
2022/06/18 05:20:17;;;;;;;2.92;1.80;;;22.90;47.80;;;;;;4981299;28;20058;-56
2022/06/18 05:22:44;;;;;;;2.08;1.20;;;22.90;48.10;;;;;;4977253;28;20061;-57
2022/06/18 05:25:15;;;;;;;1.60;1.10;;;22.90;47.90;;;;;;4980315;28;20054;-55
2022/06/18 05:27:43;;;;;;;2.75;1.25;;;23.00;48.10;;;;;;4981628;28;20058;-57
2022/06/18 05:30:13;;;;;;;1.70;1.25;;;23.00;48.00;;;;;;4969238;28;20061;-59
2022/06/18 05:32:41;;;;;;;4.25;1.20;;;23.10;48.00;;;;;;4980147;28;20660;-58
2022/06/18 05:35:10;;;;;;;1.55;1.30;;;23.10;48.10;;;;;;4978809;28;20062;-59
2022/06/18 05:37:39;;;;;;;1.70;1.10;;;23.10;48.10;;;;;;4977228;28;20054;-57
2022/06/18 05:40:08;;;;;;;1.67;1.13;;;23.20;48.20;;;;;;4976692;28;20058;-57
2022/06/18 05:42:37;;;;;;;2.63;1.40;;;23.20;48.20;;;;;;4978565;28;20061;-56
2022/06/18 05:45:06;;;;;;;2.45;1.27;;;23.30;48.50;;;;;;4980137;28;20061;-56
2022/06/18 05:47:34;;;;;;;3.65;1.23;;;23.40;48.60;;;;;;4980367;28;20050;-55
2022/06/18 05:50:02;;;;;;;3.03;1.60;;;23.50;48.50;;;;;;4982617;28;20054;-57
2022/06/18 05:52:31;;;;;;;49.70;28.75;;;23.50;48.60;;;;;;4977878;28;20072;-58
2022/06/18 05:54:58;;;;;;;29.58;17.55;;;23.50;48.60;;;;;;4978754;28;20430;-59
2022/06/18 05:57:26;;;;;;;32.83;17.50;;;23.60;48.70;;;;;;4980859;28;20074;-56
2022/06/18 05:59:55;;;;;;;11.50;6.88;;;23.70;48.70;;;;;;4979658;28;20054;-56
2022/06/18 06:02:24;;;;;;;9.82;5.00;;;23.70;48.60;;;;;;4977150;28;20050;-59
2022/06/18 06:39:24;;;;;;;3.28;1.30;;;24.70;45.70;;;;;;5016558;28;20048;-57
2022/06/18 06:41:53;;;;;;;1.58;1.20;;;24.80;45.70;;;;;;4962374;28;20057;-59
2022/06/18 06:44:21;;;;;;;1.73;1.02;;;24.90;45.40;;;;;;4966024;28;20051;-57
2022/06/18 06:46:48;;;;;;;2.10;1.35;;;25.00;45.20;;;;;;4966115;28;20415;-57
2022/06/18 06:49:16;;;;;;;3.45;1.35;;;25.10;44.90;;;;;;4965703;28;20074;-57
2022/06/18 06:51:44;;;;;;;2.85;1.30;;;25.20;44.70;;;;;;4964830;28;20058;-57
2022/06/18 06:54:11;;;;;;;3.42;1.23;;;25.30;44.60;;;;;;4966301;28;20410;-59
2022/06/18 06:59:25;;;;;;;2.05;1.27;;;25.50;44.20;;;;;;4969419;28;20062;-55
2022/06/18 07:01:54;;;;;;;5.70;1.60;;;25.60;44.00;;;;;;4963330;28;20055;-59
2022/06/18 07:04:21;;;;;;;5.82;1.50;;;25.70;43.60;;;;;;4963372;28;20384;-58
2022/06/18 07:06:49;;;;;;;3.30;1.40;;;25.80;43.60;;;;;;4965337;28;20426;-56
2022/06/18 07:09:17;;;;;;;2.75;1.30;;;25.80;44.00;;;;;;4964506;28;20055;-59
2022/06/18 07:11:44;;;;;;;1.73;1.10;;;26.00;43.40;;;;;;4963571;28;20423;-58
2022/06/18 07:14:14;;;;;;;2.17;1.25;;;26.00;43.20;;;;;;4965581;28;20055;-60
2022/06/18 07:16:49;;;;;;;3.03;1.10;;;26.10;43.00;;;;;;4965388;28;20525;-60
2022/06/18 07:19:17;;;;;;;1.92;1.38;;;26.20;43.10;;;;;;4965449;28;20423;-58
2022/06/18 07:21:45;;;;;;;1.67;1.20;;;26.30;43.10;;;;;;4963379;28;20059;-59
2022/06/18 07:24:12;;;;;;;3.10;1.50;;;26.30;43.20;;;;;;4965058;28;20423;-60
2022/06/18 07:26:40;;;;;;;3.17;1.40;;;26.40;43.30;;;;;;4964202;28;20051;-60
2022/06/18 07:29:07;;;;;;;5.13;1.20;;;26.50;43.10;;;;;;4966085;28;20065;-60
2022/06/18 07:31:35;;;;;;;4.13;1.30;;;26.60;42.80;;;;;;4963262;28;20074;-60
2022/06/18 07:34:07;;;;;;;4.10;1.48;;;26.70;42.80;;;;;;4964211;28;20062;-59
2022/06/18 07:36:34;;;;;;;4.28;1.55;;;26.70;42.60;;;;;;4964750;28;20058;-59
2022/06/18 07:39:04;;;;;;;4.90;1.45;;;26.80;42.50;;;;;;4965749;28;20061;-59
2022/06/18 07:41:35;;;;;;;4.75;1.48;;;26.90;42.30;;;;;;4973051;28;20509;-60
2022/06/18 07:44:03;;;;;;;2.72;1.20;;;27.00;42.50;;;;;;4983408;28;20058;-58
2022/06/18 07:46:31;;;;;;;3.72;1.45;;;27.00;42.70;;;;;;4984530;28;20071;-58
2022/06/18 07:48:58;;;;;;;2.20;1.23;;;27.10;42.70;;;;;;4983819;28;20050;-57
2022/06/18 07:51:27;;;;;;;3.55;1.33;;;27.10;42.40;;;;;;4968963;28;20058;-57
2022/06/18 07:53:56;;;;;;;2.22;1.40;;;27.20;42.50;;;;;;4974593;28;20054;-58
2022/06/18 07:56:24;;;;;;;2.63;1.60;;;27.30;42.40;;;;;;4979751;28;20065;-60
2022/06/18 07:58:51;;;;;;;2.95;1.40;;;27.40;42.30;;;;;;4982524;28;20054;-60
2022/06/18 08:01:19;;;;;;;4.25;1.40;;;27.50;42.30;;;;;;4971129;28;20054;-57
2022/06/18 08:03:46;;;;;;;5.10;1.48;;;27.50;42.40;;;;;;4974471;28;20058;-59
2022/06/18 08:06:13;;;;;;;3.90;1.90;;;27.50;42.40;;;;;;4972730;28;20499;-60
2022/06/18 08:08:42;;;;;;;6.18;3.22;;;27.60;42.40;;;;;;4970150;28;20078;-60
2022/06/18 08:11:13;;;;;;;3.00;1.85;;;27.70;42.20;;;;;;4975979;28;20057;-56
2022/06/18 08:13:41;;;;;;;2.22;1.58;;;27.80;42.30;;;;;;4971282;28;20046;-60
2022/06/18 08:16:11;;;;;;;3.50;1.35;;;27.80;42.10;;;;;;4969938;28;20057;-59
2022/06/18 08:18:40;;;;;;;2.45;1.45;;;27.90;42.80;;;;;;4978657;28;20074;-58
2022/06/18 08:21:11;;;;;;;2.78;1.48;;;28.00;42.60;;;;;;4970611;28;20059;-58
2022/06/18 08:23:39;;;;;;;2.55;1.42;;;28.10;43.00;;;;;;4968891;28;20058;-60
2022/06/18 08:26:10;;;;;;;2.85;1.52;;;28.10;42.80;;;;;;4971870;28;20058;-59
2022/06/18 08:28:39;;;;;;;2.67;1.55;;;28.20;43.00;;;;;;4975823;28;20049;-60
2022/06/18 08:31:08;;;;;;;12.20;1.60;;;28.30;42.90;;;;;;4971344;28;20051;-59
2022/06/18 08:33:36;;;;;;;5.72;1.70;;;28.40;42.90;;;;;;4975168;28;20517;-58
2022/06/18 08:36:06;;;;;;;2.00;1.63;;;28.40;42.70;;;;;;4976153;28;20057;-59
2022/06/18 08:38:34;;;;;;;4.47;1.75;;;28.50;42.30;;;;;;4974044;28;20061;-59
2022/06/18 08:41:21;;;;;;;2.97;1.10;;;28.60;41.70;;;;;;4974764;28;20050;-60
2022/06/18 08:44:06;;;;;;;4.80;1.90;;;28.60;41.30;;;;;;4981061;28;20057;-59
2022/06/18 08:46:45;;;;;;;3.38;1.52;;;28.80;41.60;;;;;;4979369;28;20049;-61
2022/06/18 08:49:48;;;;;;;6.03;2.10;;;28.80;41.30;;;;;;4975952;28;20043;-60
2022/06/18 08:52:28;;;;;;;3.38;1.50;;;28.90;40.70;;;;;;4979760;28;20054;-61
2022/06/18 08:55:03;;;;;;;4.38;1.88;;;28.90;40.80;;;;;;4979400;28;20061;-60
2022/06/18 08:57:38;;;;;;;4.55;1.70;;;29.00;40.90;;;;;;4979041;28;20058;-58
2022/06/18 09:00:14;;;;;;;6.32;1.83;;;29.00;40.50;;;;;;4982363;28;20081;-59
2022/06/18 09:02:49;;;;;;;3.08;1.80;;;29.10;40.50;;;;;;4981271;28;20054;-60
2022/06/18 09:05:28;;;;;;;10.25;1.60;;;29.10;40.60;;;;;;4982085;28;20498;-56
2022/06/18 09:08:18;;;;;;;4.63;1.90;;;29.20;40.80;;;;;;4981973;28;20054;-57
2022/06/18 09:11:05;;;;;;;3.35;1.80;;;29.20;40.50;;;;;;4971927;28;20058;-60
2022/06/18 09:13:39;;;;;;;4.28;1.80;;;29.30;40.30;;;;;;4982501;28;20080;-56
2022/06/18 09:16:10;;;;;;;4.20;1.90;;;29.40;40.40;;;;;;4982236;28;20057;-61
2022/06/18 09:18:43;;;;;;;5.05;2.05;;;29.40;40.20;;;;;;4980354;28;20054;-61
2022/06/18 09:21:14;;;;;;;6.45;3.50;;;29.40;40.80;;;;;;4981892;28;20414;-57
2022/06/18 09:23:47;;;;;;;6.35;3.25;;;29.50;40.60;;;;;;4982545;28;20426;-55
2022/06/18 09:26:20;;;;;;;4.72;2.67;;;29.50;40.30;;;;;;4981163;28;20050;-59
2022/06/18 09:28:53;;;;;;;5.83;2.70;;;29.50;40.30;;;;;;4981360;28;20655;-60
2022/06/18 09:31:29;;;;;;;8.18;1.70;;;29.60;40.20;;;;;;4977588;28;20496;-54
2022/06/18 09:34:00;;;;;;;8.63;2.05;;;29.60;40.40;;;;;;4979294;28;20058;-60
2022/06/18 09:36:34;;;;;;;8.75;2.00;;;29.70;40.40;;;;;;4982067;28;20054;-54
2022/06/18 09:39:08;;;;;;;3.78;1.77;;;29.80;40.90;;;;;;4982864;28;20054;-58
2022/06/18 09:41:44;;;;;;;6.57;2.33;;;29.80;41.00;;;;;;4979625;28;20426;-60
2022/06/18 09:44:21;;;;;;;5.53;2.10;;;29.90;40.50;;;;;;4979360;28;20371;-57
2022/06/18 09:46:54;;;;;;;7.25;1.95;;;29.90;40.50;;;;;;4977981;28;20060;-61
2022/06/18 09:49:21;;;;;;;4.17;2.00;;;30.00;40.50;;;;;;4981611;28;20073;-60
2022/06/18 09:51:53;;;;;;;3.42;1.83;;;30.10;40.70;;;;;;4972848;28;20062;-58
2022/06/18 09:54:22;;;;;;;5.60;1.98;;;30.10;40.40;;;;;;4977129;28;20054;-59
2022/06/18 09:56:55;;;;;;;5.32;1.80;;;30.20;40.70;;;;;;4977506;28;20458;-57
2022/06/18 09:59:29;;;;;;;5.70;2.00;;;30.20;39.30;;;;;;4981522;28;20058;-58
2022/06/18 10:01:58;;;;;;;4.47;2.00;;;30.30;39.50;;;;;;4975004;28;20062;-56
2022/06/18 10:07:19;;;;;;;7.80;2.15;;;30.30;38.60;;;;;;4983624;28;20081;-57
2022/06/18 10:09:49;;;;;;;4.78;2.70;;;30.40;39.00;;;;;;4981278;28;20050;-58
2022/06/18 10:12:22;;;;;;;3.80;2.10;;;30.40;39.20;;;;;;4974774;28;20387;-57
2022/06/18 10:15:02;;;;;;;7.00;2.30;;;30.40;39.20;;;;;;4976322;28;20084;-58
2022/06/18 10:17:50;;;;;;;6.65;3.95;;;30.50;39.30;;;;;;4983470;28;22024;-56
2022/06/18 10:20:26;;;;;;;6.55;2.70;;;30.50;39.30;;;;;;4983082;28;20053;-56
2022/06/18 10:23:03;;;;;;;2.47;1.95;;;30.50;40.00;;;;;;4978708;28;20422;-58
2022/06/18 10:25:36;;;;;;;3.70;1.50;;;30.60;39.80;;;;;;4979793;28;20177;-59
2022/06/18 10:28:14;;;;;;;3.70;1.80;;;30.70;39.80;;;;;;4981283;28;20510;-59
2022/06/18 10:30:52;;;;;;;4.35;1.60;;;30.80;39.70;;;;;;4980740;28;20054;-59
2022/06/18 10:33:33;;;;;;;3.10;1.70;;;30.80;39.70;;;;;;4984106;28;20054;-59
2022/06/18 10:36:14;;;;;;;5.85;1.98;;;30.90;39.80;;;;;;4984003;28;20498;-59
2022/06/18 10:39:11;;;;;;;5.13;1.92;;;30.90;40.20;;;;;;4980829;28;20054;-59
2022/06/18 10:41:50;;;;;;;6.38;1.90;;;31.10;40.80;;;;;;4959264;28;20502;-57
2022/06/18 10:44:29;;;;;;;11.88;2.60;;;31.10;40.20;;;;;;4976115;28;20061;-59
2022/06/18 10:47:05;;;;;;;6.35;2.45;;;31.20;39.60;;;;;;4976983;28;20513;-58
2022/06/18 10:49:32;;;;;;;3.83;1.60;;;31.30;39.40;;;;;;4976748;28;20058;-59
2022/06/18 10:52:01;;;;;;;7.72;2.40;;;31.30;39.00;;;;;;4978767;28;20054;-59
2022/06/18 10:54:31;;;;;;;38.92;5.07;;;31.40;38.90;;;;;;4972283;28;20050;-59
2022/06/18 10:56:59;;;;;;;10.23;2.60;;;31.50;38.60;;;;;;4977287;28;20118;-58
2022/06/18 10:59:34;;;;;;;18.95;2.75;;;31.50;39.20;;;;;;4975960;28;20047;-59
2022/06/18 11:02:21;;;;;;;8.25;2.28;;;31.60;39.10;;;;;;4978747;28;20051;-58
2022/06/18 11:04:56;;;;;;;7.10;2.10;;;31.60;38.70;;;;;;4981152;28;20058;-56
2022/06/18 11:10:34;;;;;;;8.52;2.30;;;31.80;38.30;;;;;;4975527;28;20051;-57
2022/06/18 11:13:03;;;;;;;5.38;1.92;;;31.80;38.00;;;;;;4980704;28;20158;-59
2022/06/18 11:15:34;;;;;;;9.93;2.58;;;31.80;38.40;;;;;;4971247;28;20531;-56
2022/06/18 11:18:14;;;;;;;8.18;2.83;;;31.90;38.20;;;;;;4967384;28;20070;-59
2022/06/18 11:20:52;;;;;;;7.13;2.40;;;32.00;37.90;;;;;;4968436;28;20590;-57
2022/06/18 11:23:22;;;;;;;9.40;2.40;;;32.00;37.40;;;;;;4978529;28;20050;-55
2022/06/18 11:25:55;;;;;;;7.35;2.30;;;32.10;36.90;;;;;;4978900;28;20075;-57
2022/06/18 11:28:28;;;;;;;5.90;2.00;;;32.00;37.00;;;;;;5160011;23;21370;-46
2022/06/18 11:30:58;;;;;;;6.47;2.50;;;32.10;36.80;;;;;;4964575;28;20062;-59
2022/06/18 11:33:31;;;;;;;6.72;2.70;;;32.10;37.20;;;;;;4981494;28;20061;-57
2022/06/18 11:36:07;;;;;;;5.00;2.15;;;32.20;37.10;;;;;;4976478;28;20058;-51
2022/06/18 11:38:36;;;;;;;7.93;2.38;;;32.20;37.40;;;;;;4976138;28;20061;-57
2022/06/18 11:41:13;;;;;;;6.22;2.17;;;32.20;37.40;;;;;;4980520;28;20414;-56
2022/06/18 11:43:48;;;;;;;8.30;2.10;;;32.30;37.80;;;;;;4982443;28;20520;-57
2022/06/18 11:46:20;;;;;;;5.57;1.92;;;32.40;37.40;;;;;;5156113;23;20032;-56
2022/06/18 11:48:57;;;;;;;4.38;2.22;;;32.40;37.40;;;;;;5016496;28;20061;-57
2022/06/18 11:51:31;;;;;;;6.43;1.73;;;32.50;37.30;;;;;;5196868;23;20331;-57
2022/06/18 11:54:08;;;;;;;9.05;2.45;;;32.50;37.00;;;;;;5019408;28;20294;-54
2022/06/18 11:56:48;;;;;;;12.65;2.92;;;32.60;36.20;;;;;;5036756;28;20843;-53
2022/06/18 11:59:21;;;;;;;9.60;2.42;;;32.60;36.20;;;;;;5043492;28;20048;-59
2022/06/18 12:01:53;;;;;;;5.35;2.00;;;32.60;36.70;;;;;;5043795;28;20056;-58
2022/06/18 12:04:28;;;;;;;6.93;1.77;;;32.70;36.50;;;;;;5044830;28;20056;-59
2022/06/18 12:07:03;;;;;;;6.00;2.35;;;32.80;36.30;;;;;;5043181;28;20052;-53
2022/06/18 12:09:32;;;;;;;9.82;2.28;;;32.80;36.20;;;;;;5045878;28;20064;-59
2022/06/18 12:12:36;;;;;;;7.60;2.58;;;32.80;35.80;;;;;;5042988;28;20415;-57
2022/06/18 12:15:14;;;;;;;5.75;2.05;;;32.80;36.20;;;;;;5043601;28;20407;-58
2022/06/18 12:17:48;;;;;;;5.90;2.00;;;32.90;35.90;;;;;;5044081;28;20053;-56
2022/06/18 12:20:41;;;;;;;5.90;2.13;;;32.90;36.10;;;;;;5043530;28;20056;-53
2022/06/18 12:23:18;;;;;;;11.47;2.30;;;32.90;35.30;;;;;;5045420;28;20405;-57
2022/06/18 12:25:56;;;;;;;14.35;2.42;;;33.00;34.70;;;;;;5041617;28;20065;-56
2022/06/18 12:28:33;;;;;;;9.63;2.25;;;33.00;35.30;;;;;;5044552;28;20171;-57
2022/06/18 12:31:05;;;;;;;8.90;2.30;;;33.10;35.90;;;;;;5043383;28;20049;-56
2022/06/18 12:33:43;;;;;;;6.05;2.28;;;33.10;36.60;;;;;;5042786;28;20064;-57
2022/06/18 12:36:17;;;;;;;7.22;2.50;;;33.10;36.00;;;;;;5041343;28;20067;-58
2022/06/18 12:38:58;;;;;;;7.03;2.47;;;33.10;35.90;;;;;;5042260;28;20052;-58
2022/06/18 12:41:41;;;;;;;7.65;2.60;;;33.20;35.30;;;;;;5041965;28;20052;-56
2022/06/18 12:44:24;;;;;;;12.98;2.53;;;33.30;34.80;;;;;;5044291;28;20049;-51
2022/06/18 12:47:01;;;;;;;7.70;2.20;;;33.30;34.90;;;;;;5042460;28;20055;-51
2022/06/18 12:49:38;;;;;;;10.95;2.38;;;33.30;34.70;;;;;;5041967;28;20056;-55
2022/06/18 12:52:14;;;;;;;5.68;2.47;;;33.40;35.10;;;;;;5040908;28;20508;-56
2022/06/18 12:54:57;;;;;;;10.48;4.78;;;33.40;35.20;;;;;;5041186;28;20071;-57
2022/06/18 12:57:36;;;;;;;10.73;4.00;;;33.50;35.60;;;;;;5039476;28;20542;-57
2022/06/18 13:00:10;;;;;;;8.65;2.50;;;33.50;35.20;;;;;;5041166;28;20053;-56
2022/06/18 13:03:12;;;;;;;7.80;2.40;;;33.50;35.20;;;;;;5042222;28;20076;-58
2022/06/18 13:05:46;;;;;;;7.97;2.40;;;33.50;34.20;;;;;;5010849;28;20431;-55
2022/06/18 13:08:37;;;;;;;8.38;2.20;;;33.60;34.00;;;;;;5043028;28;20076;-56
2022/06/18 13:11:15;;;;;;;7.25;2.22;;;33.60;33.80;;;;;;5040447;28;20056;-53
2022/06/18 13:13:51;;;;;;;6.55;2.47;;;33.70;33.80;;;;;;5043712;28;20080;-56
2022/06/18 13:16:22;;;;;;;7.20;2.72;;;33.70;33.70;;;;;;5042854;28;20060;-53
2022/06/18 13:18:55;;;;;;;8.27;2.88;;;33.80;33.70;;;;;;5042885;28;20052;-56
2022/06/18 13:21:24;;;;;;;7.82;2.85;;;33.80;33.20;;;;;;5042796;28;20052;-56
2022/06/18 13:29:35;;;;;;;6.95;2.33;;;33.90;33.80;;;;;;5049030;28;20067;-57
2022/06/18 13:32:08;;;;;;;8.00;2.10;;;34.00;34.20;;;;;;5042295;28;20049;-59
2022/06/18 13:34:45;;;;;;;13.13;2.65;;;34.10;33.80;;;;;;5042643;28;20077;-57
2022/06/18 13:37:19;;;;;;;7.18;2.25;;;34.10;32.80;;;;;;5042556;28;20079;-57
2022/06/18 13:40:01;;;;;;;9.02;2.50;;;34.10;32.30;;;;;;5041515;28;20404;-52
2022/06/18 13:42:50;;;;;;;11.95;2.70;;;34.10;31.40;;;;;;5041403;28;20049;-56
2022/06/18 13:45:46;;;;;;;10.65;2.78;;;34.20;31.80;;;;;;5042368;28;20396;-53
2022/06/18 13:48:37;;;;;;;10.50;2.80;;;34.20;31.80;;;;;;5042193;28;20064;-56
2022/06/18 13:51:04;;;;;;;10.18;2.85;;;34.20;31.70;;;;;;5042893;28;20391;-56
2022/06/18 13:53:33;;;;;;;7.90;2.22;;;34.20;32.20;;;;;;5039970;28;20065;-58
2022/06/18 13:56:14;;;;;;;13.00;5.25;;;34.30;32.80;;;;;;5039441;28;20427;-59
2022/06/18 13:58:49;;;;;;;11.48;4.30;;;34.30;33.10;;;;;;5043768;28;20057;-57
2022/06/18 14:01:19;;;;;;;11.43;3.03;;;34.30;32.50;;;;;;5041888;28;20610;-59
2022/06/18 14:03:50;;;;;;;12.48;2.78;;;34.40;32.50;;;;;;5042436;28;20064;-58
2022/06/18 14:06:22;;;;;;;6.97;2.80;;;34.50;33.50;;;;;;5041885;28;20057;-58